Risingsun, Ohio
Current Conditions -  °F | °C
As of 10:53 AM on Thursday 30 Oct 2014 (Local Time) from KTDZ Reporting Station
Clear Clear  
Wind Chill:   Ceiling: Unl
Heat Index:   Visibility: 10mi
Dew Point:   Wind: 3mph
Humidity: 63%   Direction: NA
Pressure: 30.16"   Gusts: NA
Location:  41.27°N, 83.42°W
Report Text: KTDZ 301453Z AUTO VRB03KT 10SM CLR 08/02 A3016 RMK AO2 SLP216 T00830017 50005 TSNO
Loading
Personal Weather Stations






























Interactive Weather Map
Tropical Storm Tracking
New forecast layout! Learn more

10-Day Weather Forecast

Advertisements
Track Severe Weather on mobile